Terminal Aerodrome Forecast
Issued by NWS Mt. Holly, NJ

Home | Current Version | Previous Version | Text Only | Print | Product List | Glossary On
Versions: 1 2 3 4 5 6 7 8 9 10 11 12 13 14 15 16 17 18 19 20 21 22 23 24 25 26 27 28 29 30 31 32 33 34 35 36 37 38 39 40 41 42
000
FTAK31 PANC 221858 AAA
TAFABE
TAF AMD
PABE 221858Z 2219/2318 34008KT P6SM SCT020 BKN220
      TEMPO 2219/2221 BKN018
     FM230200 31006KT P6SM BKN100
     FM231400 31005KT P6SM -SHRA SCT040 OVC050=

USA.gov is the U.S. government's official web portal to all federal, state and local government web resources and services.